createdAt,value
2018-12-01T00:00:22.907Z,9.60
2018-12-01T00:02:51.179Z,9.60
2018-12-01T00:05:19.368Z,9.50
2018-12-01T00:07:47.961Z,9.60
2018-12-01T00:10:16.158Z,9.60
2018-12-01T00:12:45.434Z,9.50
2018-12-01T00:15:17.668Z,9.50
2018-12-01T00:17:45.903Z,9.50
2018-12-01T00:20:16.380Z,9.60
2018-12-01T00:22:44.573Z,9.50
2018-12-01T00:25:12.750Z,9.50
2018-12-01T00:27:40.912Z,9.50
2018-12-01T00:30:11.603Z,9.40
2018-12-01T00:32:40.003Z,9.30
2018-12-01T00:35:09.396Z,9.40
2018-12-01T00:37:37.586Z,9.30
2018-12-01T00:40:12.169Z,9.30
2018-12-01T00:42:40.350Z,9.20
2018-12-01T00:45:10.029Z,9.20
2018-12-01T00:47:38.260Z,9.10
2018-12-01T00:50:09.042Z,9.00
2018-12-01T00:52:37.241Z,9.00
2018-12-01T00:55:07.352Z,8.90
2018-12-01T00:57:35.576Z,8.80
2018-12-01T01:00:05.542Z,8.70
2018-12-01T01:02:34.065Z,8.70
2018-12-01T01:05:02.270Z,8.70
2018-12-01T01:07:30.482Z,8.60
2018-12-01T01:09:58.653Z,8.60
2018-12-01T01:12:26.951Z,8.60
2018-12-01T01:14:55.150Z,8.60
2018-12-01T01:17:23.341Z,8.60
2018-12-01T01:19:51.560Z,8.50
2018-12-01T01:22:19.772Z,8.50
2018-12-01T01:24:48.109Z,8.50
2018-12-01T01:27:16.268Z,8.50
2018-12-01T01:29:44.417Z,8.40
2018-12-01T01:32:12.651Z,8.40
2018-12-01T01:34:40.838Z,8.50
2018-12-01T01:37:09.042Z,8.50
2018-12-01T01:39:37.218Z,8.50
2018-12-01T01:42:05.703Z,8.50
2018-12-01T01:44:33.930Z,8.40
2018-12-01T01:47:02.190Z,8.40
2018-12-01T01:49:30.374Z,8.40
2018-12-01T01:51:58.626Z,8.40
2018-12-01T01:54:26.888Z,8.40
2018-12-01T01:56:55.106Z,8.50
2018-12-01T01:59:23.283Z,8.40
2018-12-01T02:01:51.521Z,8.40
2018-12-01T02:04:19.748Z,8.40
2018-12-01T02:06:47.956Z,8.40
2018-12-01T02:09:16.179Z,8.40
2018-12-01T02:11:44.389Z,8.40
2018-12-01T02:14:12.631Z,8.30
2018-12-01T02:16:40.789Z,8.40
2018-12-01T02:19:08.959Z,8.30
2018-12-01T02:21:37.169Z,8.30
2018-12-01T02:24:05.716Z,8.20
2018-12-01T02:26:33.954Z,8.20
2018-12-01T02:29:02.130Z,8.20
2018-12-01T02:31:30.274Z,8.20
2018-12-01T02:33:58.449Z,8.20
2018-12-01T02:36:26.733Z,8.20
2018-12-01T02:38:54.955Z,8.20
2018-12-01T02:41:23.129Z,8.20
2018-12-01T02:44:02.811Z,8.10
2018-12-01T02:46:47.338Z,8.20
2018-12-01T02:49:15.546Z,8.20
2018-12-01T02:51:43.673Z,8.20
2018-12-01T02:54:11.856Z,8.20
2018-12-01T02:56:40.071Z,8.10
2018-12-01T02:59:08.269Z,8.10
2018-12-01T03:01:36.445Z,8.00
2018-12-01T03:04:04.653Z,7.90
2018-12-01T03:06:32.832Z,7.80
2018-12-01T03:09:01.078Z,7.80
2018-12-01T03:11:29.227Z,7.70
2018-12-01T03:13:57.448Z,7.80
2018-12-01T03:16:25.639Z,7.90
2018-12-01T03:18:53.813Z,7.90
2018-12-01T03:21:22.020Z,7.80
2018-12-01T03:23:50.268Z,7.80
2018-12-01T03:26:18.460Z,7.80
2018-12-01T03:28:46.689Z,7.90
2018-12-01T03:31:14.926Z,7.80
2018-12-01T03:33:44.243Z,7.70
2018-12-01T03:36:12.413Z,7.70
2018-12-01T03:38:48.975Z,7.60
2018-12-01T03:41:17.174Z,7.60
2018-12-01T03:43:45.313Z,7.50
2018-12-01T03:46:13.555Z,7.50
2018-12-01T03:48:41.766Z,7.40
2018-12-01T03:51:09.929Z,7.50
2018-12-01T03:53:38.118Z,7.50
2018-12-01T03:56:06.313Z,7.40
2018-12-01T03:58:34.518Z,7.40
2018-12-01T04:01:02.711Z,7.30
2018-12-01T04:03:31.011Z,7.30
2018-12-01T04:05:59.245Z,7.20
2018-12-01T04:08:27.397Z,7.30
2018-12-01T04:10:55.576Z,7.20
2018-12-01T04:13:23.741Z,7.10
2018-12-01T04:15:51.951Z,7.10
2018-12-01T04:18:20.188Z,7.20
2018-12-01T04:20:48.364Z,7.20
2018-12-01T04:23:16.559Z,7.20
2018-12-01T04:25:44.718Z,7.20
2018-12-01T04:28:12.973Z,7.10
2018-12-01T04:30:41.181Z,7.10
2018-12-01T04:33:09.370Z,7.00
2018-12-01T04:35:37.631Z,7.00
2018-12-01T04:38:06.387Z,7.00
2018-12-01T04:40:34.536Z,7.00
2018-12-01T04:43:02.873Z,7.00
2018-12-01T04:45:31.088Z,7.10
2018-12-01T04:47:59.331Z,7.00
2018-12-01T04:50:27.580Z,6.90
2018-12-01T04:55:51.366Z,6.90
2018-12-01T06:44:18.629Z,6.60
2018-12-01T06:49:32.237Z,6.70
2018-12-01T06:52:00.800Z,6.80
2018-12-01T06:54:29.285Z,6.80
2018-12-01T06:56:58.128Z,6.90
2018-12-01T06:59:26.990Z,7.00
2018-12-01T07:01:55.453Z,6.90
2018-12-01T07:04:23.859Z,7.00
2018-12-01T07:06:52.301Z,7.00
2018-12-01T07:09:20.728Z,7.10
2018-12-01T07:11:49.249Z,7.00
2018-12-01T07:14:17.733Z,7.00
2018-12-01T07:16:46.317Z,7.00
2018-12-01T07:19:16.187Z,7.00
2018-12-01T07:21:44.683Z,7.10
2018-12-01T07:24:13.067Z,7.00
2018-12-01T07:26:41.452Z,7.00
2018-12-01T07:29:09.997Z,7.10
2018-12-01T07:31:39.317Z,7.10
2018-12-01T07:34:07.682Z,7.20
2018-12-01T07:36:36.345Z,7.30
2018-12-01T07:39:07.750Z,7.30
2018-12-01T07:41:36.273Z,7.30
2018-12-01T07:44:05.058Z,7.20
2018-12-01T07:46:33.781Z,7.30
2018-12-01T07:49:02.185Z,7.30
2018-12-01T07:51:30.629Z,7.30
2018-12-01T07:53:59.277Z,7.40
2018-12-01T07:59:00.562Z,7.40
2018-12-01T08:01:29.000Z,7.40
2018-12-01T08:03:57.531Z,7.40
2018-12-01T08:06:26.112Z,7.60
2018-12-01T08:08:54.916Z,7.50
2018-12-01T08:11:23.338Z,7.50
2018-12-01T08:13:51.763Z,7.40
2018-12-01T08:16:20.348Z,7.60
2018-12-01T08:18:48.795Z,7.60
2018-12-01T08:21:17.274Z,7.70
2018-12-01T08:23:45.844Z,7.70
2018-12-01T08:26:14.221Z,7.70
2018-12-01T08:28:42.727Z,7.70
2018-12-01T08:31:11.090Z,7.70
2018-12-01T08:33:39.533Z,7.80
2018-12-01T08:36:07.996Z,7.70
2018-12-01T08:38:36.479Z,7.80
2018-12-01T08:41:05.724Z,7.90
2018-12-01T08:43:34.176Z,7.90
2018-12-01T08:46:02.593Z,7.90
2018-12-01T08:48:30.994Z,8.00
2018-12-01T08:50:59.378Z,7.90
2018-12-01T08:53:27.896Z,8.00
2018-12-01T08:55:56.307Z,8.00
2018-12-01T08:58:24.771Z,8.00
2018-12-01T09:00:53.236Z,8.10
2018-12-01T09:03:24.069Z,8.40
2018-12-01T09:05:53.163Z,8.50
2018-12-01T09:08:21.664Z,8.50
2018-12-01T09:10:50.048Z,8.70
2018-12-01T09:13:18.552Z,8.80
2018-12-01T09:15:47.017Z,9.00
2018-12-01T09:18:15.541Z,9.20
2018-12-01T09:20:44.024Z,9.20
2018-12-01T09:23:12.456Z,9.40
2018-12-01T09:25:40.807Z,9.50
2018-12-01T09:28:09.936Z,9.40
2018-12-01T09:30:40.420Z,9.40
2018-12-01T09:33:08.962Z,9.30
2018-12-01T09:35:37.527Z,9.30
2018-12-01T09:38:06.169Z,9.20
2018-12-01T09:40:36.436Z,9.20
2018-12-01T09:43:05.502Z,9.30
2018-12-01T09:45:34.243Z,9.40
2018-12-01T09:48:08.794Z,9.40
2018-12-01T09:50:39.648Z,9.50
2018-12-01T09:53:19.652Z,9.50
2018-12-01T09:55:48.636Z,9.50
2018-12-01T09:58:20.822Z,9.60
2018-12-01T10:00:50.467Z,9.70
2018-12-01T10:03:18.950Z,9.70
2018-12-01T10:06:31.493Z,9.70
2018-12-01T10:09:02.088Z,9.80
2018-12-01T10:11:33.802Z,10.10
2018-12-01T10:14:02.303Z,10.20
2018-12-01T10:16:31.368Z,11.00
2018-12-01T10:18:59.773Z,12.00
2018-12-01T10:21:28.278Z,12.70
2018-12-01T10:23:56.726Z,13.10
2018-12-01T10:26:25.301Z,13.10
2018-12-01T10:28:58.625Z,13.50
2018-12-01T10:31:27.560Z,14.00
2018-12-01T10:33:55.478Z,15.20
2018-12-01T10:36:23.937Z,15.70
2018-12-01T10:38:53.640Z,15.90
2018-12-01T10:41:22.445Z,15.50
2018-12-01T10:43:51.427Z,14.90
2018-12-01T10:46:22.172Z,13.70
2018-12-01T10:48:51.173Z,13.20
2018-12-01T10:51:19.926Z,12.80
2018-12-01T10:53:48.115Z,12.50
2018-12-01T10:56:16.365Z,12.30
2018-12-01T10:58:44.614Z,12.20
2018-12-01T11:01:38.292Z,12.10
2018-12-01T11:04:11.885Z,12.20
2018-12-01T11:06:40.113Z,12.10
2018-12-01T11:09:08.796Z,12.00
2018-12-01T11:11:37.007Z,12.20
2018-12-01T11:14:05.237Z,12.20
2018-12-01T11:16:33.377Z,12.30
2018-12-01T11:19:01.614Z,12.50
2018-12-01T11:21:29.790Z,12.20
2018-12-01T11:23:58.103Z,12.20
2018-12-01T11:26:26.303Z,12.40
2018-12-01T11:28:54.496Z,12.60
2018-12-01T11:31:22.758Z,12.60
2018-12-01T11:33:51.037Z,12.70
2018-12-01T11:36:19.233Z,13.70
2018-12-01T11:38:47.412Z,14.30
2018-12-01T11:41:15.603Z,14.10
2018-12-01T11:43:43.799Z,14.30
2018-12-01T11:46:12.009Z,14.40
2018-12-01T11:48:40.234Z,15.00
2018-12-01T11:51:08.454Z,14.60
2018-12-01T11:53:36.685Z,14.70
2018-12-01T11:56:05.316Z,15.50
2018-12-01T11:58:33.539Z,16.60
2018-12-01T12:01:01.731Z,17.00
2018-12-01T12:03:29.944Z,17.40
2018-12-01T12:05:58.149Z,17.10
2018-12-01T12:08:27.284Z,16.80
2018-12-01T12:10:55.749Z,16.40
2018-12-01T12:13:25.124Z,16.80
2018-12-01T12:15:53.434Z,16.00
2018-12-01T12:18:22.150Z,17.70
2018-12-01T12:20:50.318Z,16.30
2018-12-01T12:23:18.538Z,15.60
2018-12-01T12:25:46.702Z,14.70
2018-12-01T12:28:14.919Z,14.80
2018-12-01T12:30:43.138Z,15.00
2018-12-01T12:33:11.539Z,17.40
2018-12-01T12:35:39.789Z,18.90
2018-12-01T12:38:08.005Z,20.20
2018-12-01T12:40:36.213Z,21.60
2018-12-01T12:43:04.476Z,22.30
2018-12-01T12:45:32.696Z,22.20
2018-12-01T12:48:00.899Z,20.60
2018-12-01T12:50:29.106Z,19.30
2018-12-01T12:52:57.350Z,17.60
2018-12-01T12:55:26.318Z,16.50
2018-12-01T12:57:54.556Z,15.90
2018-12-01T13:00:26.598Z,15.40
2018-12-01T13:02:59.156Z,14.80
2018-12-01T13:05:30.812Z,14.40
2018-12-01T13:07:58.964Z,14.10
2018-12-01T13:10:27.302Z,13.40
2018-12-01T13:12:55.502Z,13.10
2018-12-01T13:15:23.706Z,12.90
2018-12-01T13:17:51.918Z,13.00
2018-12-01T13:20:21.056Z,13.10
2018-12-01T13:22:55.493Z,12.80
2018-12-01T13:25:23.652Z,12.80
2018-12-01T13:27:54.564Z,12.80
2018-12-01T13:30:24.188Z,12.60
2018-12-01T13:32:52.441Z,12.50
2018-12-01T13:35:21.153Z,12.60
2018-12-01T13:37:49.369Z,12.60
2018-12-01T13:40:17.598Z,12.50
2018-12-01T13:42:46.640Z,12.30
2018-12-01T13:45:16.719Z,12.20
2018-12-01T13:47:47.191Z,12.10
2018-12-01T13:50:16.282Z,12.20
2018-12-01T13:52:52.340Z,12.00
2018-12-01T13:55:20.628Z,12.20
2018-12-01T13:57:48.818Z,12.10
2018-12-01T14:00:19.179Z,12.00
2018-12-01T14:02:47.446Z,11.80
2018-12-01T14:05:15.698Z,11.80
2018-12-01T14:07:43.934Z,11.80
2018-12-01T14:10:15.828Z,11.70
2018-12-01T14:12:45.261Z,11.70
2018-12-01T14:15:15.804Z,11.80
2018-12-01T14:17:44.027Z,11.70
2018-12-01T14:20:13.378Z,11.70
2018-12-01T14:22:41.758Z,11.70
2018-12-01T14:25:11.861Z,11.60
2018-12-01T14:27:41.150Z,11.60
2018-12-01T14:30:12.872Z,11.60
2018-12-01T14:32:41.279Z,11.60
2018-12-01T14:35:15.097Z,11.50
2018-12-01T14:37:43.802Z,11.60
2018-12-01T14:40:13.355Z,11.60
2018-12-01T14:42:42.265Z,11.50
2018-12-01T14:45:13.217Z,11.50
2018-12-01T14:47:41.434Z,11.50
2018-12-01T14:50:11.536Z,11.50
2018-12-01T14:52:40.025Z,11.50
2018-12-01T14:55:11.345Z,11.50
2018-12-01T14:57:39.581Z,11.50
2018-12-01T15:00:14.353Z,11.40
2018-12-01T15:02:44.631Z,11.30
2018-12-01T15:05:13.028Z,11.30
2018-12-01T15:07:41.299Z,11.40
2018-12-01T15:10:11.870Z,11.40
2018-12-01T15:12:40.130Z,11.40
2018-12-01T15:15:09.636Z,11.40
2018-12-01T15:17:37.884Z,11.40
2018-12-01T15:20:09.195Z,11.40
2018-12-01T15:22:38.527Z,11.30
2018-12-01T15:25:09.198Z,11.30
2018-12-01T15:27:37.373Z,11.30
2018-12-01T15:30:26.003Z,11.20
2018-12-01T15:32:59.656Z,11.30
2018-12-01T15:35:27.946Z,11.20
2018-12-01T15:37:56.368Z,11.10
2018-12-01T15:40:24.677Z,11.10
2018-12-01T15:42:52.870Z,11.10
2018-12-01T15:45:21.869Z,10.90
2018-12-01T15:47:50.049Z,10.90
2018-12-01T15:50:20.144Z,11.00
2018-12-01T15:52:53.709Z,10.90
2018-12-01T15:55:22.469Z,10.90
2018-12-01T15:57:50.751Z,10.80
2018-12-01T16:00:19.991Z,10.70
2018-12-01T16:02:48.561Z,10.70
2018-12-01T16:05:17.956Z,10.70
2018-12-01T16:07:46.308Z,10.50
2018-12-01T16:10:15.870Z,10.60
2018-12-01T16:12:44.859Z,10.50
2018-12-01T16:15:27.883Z,10.30
2018-12-01T16:17:56.099Z,10.20
2018-12-01T16:20:24.326Z,10.20
2018-12-01T16:22:52.672Z,10.00
2018-12-01T16:25:22.322Z,9.90
2018-12-01T16:27:50.541Z,9.90
2018-12-01T16:30:21.081Z,9.80
2018-12-01T16:32:50.878Z,9.80
2018-12-01T16:35:19.174Z,9.70
2018-12-01T16:37:47.414Z,9.70
2018-12-01T16:40:34.374Z,9.60
2018-12-01T16:43:04.267Z,9.60
2018-12-01T16:45:32.541Z,9.50
2018-12-01T16:48:00.769Z,9.50
2018-12-01T16:50:28.987Z,9.60
2018-12-01T16:52:57.222Z,9.50
2018-12-01T16:55:25.443Z,9.60
2018-12-01T16:57:53.755Z,9.60
2018-12-01T17:00:21.984Z,9.50
2018-12-01T17:02:54.707Z,9.60
2018-12-01T17:05:24.525Z,9.60
2018-12-01T17:07:53.435Z,9.60
2018-12-01T17:10:22.531Z,9.60
2018-12-01T17:12:52.355Z,9.60
2018-12-01T17:15:21.684Z,9.70
2018-12-01T17:17:50.167Z,9.70
2018-12-01T17:20:19.230Z,9.70
2018-12-01T17:22:56.169Z,9.70
2018-12-01T17:25:24.620Z,9.70
2018-12-01T17:27:54.541Z,9.70
2018-12-01T17:30:24.973Z,9.70
2018-12-01T17:32:53.936Z,9.70
2018-12-01T17:35:23.860Z,9.70
2018-12-01T17:37:53.428Z,9.70
2018-12-01T17:41:00.223Z,9.70
2018-12-01T17:43:39.350Z,9.70
2018-12-01T17:46:07.882Z,9.70
2018-12-01T17:48:36.468Z,9.70
2018-12-01T17:51:04.843Z,9.60
2018-12-01T17:53:33.413Z,9.60
2018-12-01T17:56:01.925Z,9.60
2018-12-01T17:58:30.210Z,9.60
2018-12-01T18:00:58.564Z,9.50
2018-12-01T18:03:26.814Z,9.60
2018-12-01T18:05:55.106Z,9.60
2018-12-01T18:08:23.812Z,9.50
2018-12-01T18:10:53.346Z,9.40
2018-12-01T18:13:22.097Z,9.40
2018-12-01T18:15:50.337Z,9.40
2018-12-01T18:18:18.507Z,9.40
2018-12-01T18:20:46.749Z,9.40
2018-12-01T18:23:16.661Z,9.30
2018-12-01T18:25:49.293Z,9.30
2018-12-01T18:28:24.335Z,9.30
2018-12-01T18:30:52.585Z,9.20
2018-12-01T18:33:23.874Z,9.30
2018-12-01T18:35:52.078Z,9.30
2018-12-01T18:38:20.304Z,9.30
2018-12-01T18:40:48.659Z,9.40
2018-12-01T18:43:16.893Z,9.40
2018-12-01T18:45:46.962Z,9.30
2018-12-01T18:48:15.286Z,9.30
2018-12-01T18:50:43.533Z,9.30
2018-12-01T18:53:11.736Z,9.30
2018-12-01T18:55:44.380Z,9.30
2018-12-01T18:58:12.629Z,9.30
2018-12-01T19:00:42.470Z,9.40
2018-12-01T19:03:10.863Z,9.30
2018-12-01T19:05:39.223Z,9.40
2018-12-01T19:08:07.419Z,9.40
2018-12-01T19:10:35.683Z,9.40
2018-12-01T19:13:03.970Z,9.30
2018-12-01T19:15:32.590Z,9.30
2018-12-01T19:18:00.946Z,9.30
2018-12-01T19:20:29.281Z,9.30
2018-12-01T19:23:04.449Z,9.40
2018-12-01T19:25:32.641Z,9.40
2018-12-01T19:28:01.858Z,9.40
2018-12-01T19:30:30.096Z,9.50
2018-12-01T19:33:01.281Z,9.50
2018-12-01T19:35:29.537Z,9.50
2018-12-01T19:37:57.730Z,9.50
2018-12-01T19:40:28.715Z,9.60
2018-12-01T19:42:56.106Z,9.60
2018-12-01T19:45:24.355Z,9.60
2018-12-01T19:47:52.605Z,9.60
2018-12-01T19:50:24.084Z,9.60
2018-12-01T19:52:51.348Z,9.60
2018-12-01T19:55:21.246Z,9.60
2018-12-01T19:57:49.508Z,9.60
2018-12-01T20:00:19.916Z,9.60
2018-12-01T20:02:48.369Z,9.60
2018-12-01T20:05:18.445Z,9.60
2018-12-01T20:07:47.256Z,9.60
2018-12-01T20:10:32.695Z,9.70
2018-12-01T20:13:07.863Z,9.70
2018-12-01T20:15:40.230Z,9.70
2018-12-01T20:18:13.703Z,9.70
2018-12-01T20:20:42.208Z,9.70
2018-12-01T20:23:10.608Z,9.70
2018-12-01T20:25:39.255Z,9.70
2018-12-01T20:28:08.084Z,9.70
2018-12-01T20:30:36.786Z,9.80
2018-12-01T20:33:05.224Z,9.80
2018-12-01T20:35:42.070Z,9.80
2018-12-01T20:38:15.473Z,9.80
2018-12-01T20:40:44.069Z,9.80
2018-12-01T20:43:12.485Z,9.80
2018-12-01T20:45:40.943Z,9.80
2018-12-01T20:48:09.828Z,9.80
2018-12-01T20:50:38.873Z,9.90
2018-12-01T20:53:08.915Z,9.90
2018-12-01T20:55:37.356Z,9.90
2018-12-01T20:58:08.041Z,9.90
2018-12-01T21:00:36.515Z,9.90
2018-12-01T21:03:05.295Z,9.90
2018-12-01T21:05:34.081Z,9.80
2018-12-01T21:08:02.740Z,9.90
2018-12-01T21:10:33.212Z,9.90
2018-12-01T21:13:03.082Z,9.90
2018-12-01T21:15:31.923Z,9.90
2018-12-01T21:18:01.468Z,9.90
2018-12-01T21:20:30.077Z,9.90
2018-12-01T21:22:58.436Z,9.90
2018-12-01T21:25:27.695Z,10.00
2018-12-01T21:27:57.858Z,9.90
2018-12-01T21:30:27.281Z,9.90
2018-12-01T21:33:04.249Z,9.90
2018-12-01T21:35:32.902Z,9.90
2018-12-01T21:38:01.286Z,9.90
2018-12-01T21:40:29.623Z,9.90
2018-12-01T21:42:57.896Z,9.90
2018-12-01T21:45:26.655Z,10.00
2018-12-01T21:47:55.237Z,9.90
2018-12-01T21:50:23.456Z,9.90
2018-12-01T21:52:53.992Z,10.00
2018-12-01T21:55:23.182Z,9.90
2018-12-01T21:57:52.245Z,10.00
2018-12-01T22:00:24.614Z,9.90
2018-12-01T22:02:55.133Z,10.00
2018-12-01T22:05:25.682Z,10.00
2018-12-01T22:07:53.936Z,10.00
2018-12-01T22:10:22.158Z,10.00
2018-12-01T22:12:50.585Z,10.00
2018-12-01T22:15:19.812Z,10.00
2018-12-01T22:17:50.101Z,9.90
2018-12-01T22:20:21.441Z,10.00
2018-12-01T22:22:50.389Z,9.90
2018-12-01T22:25:18.823Z,10.00
2018-12-01T22:27:47.327Z,10.00
2018-12-01T22:30:20.921Z,10.00
2018-12-01T22:32:51.766Z,10.00
2018-12-01T22:35:21.455Z,10.00
2018-12-01T22:37:50.453Z,10.00
2018-12-01T22:40:22.056Z,10.10
2018-12-01T22:42:52.900Z,10.10
2018-12-01T22:45:21.805Z,10.10
2018-12-01T22:47:50.305Z,10.10
2018-12-01T22:50:19.676Z,10.10
2018-12-01T22:52:48.356Z,10.10
2018-12-01T22:55:18.019Z,10.20
2018-12-01T22:57:54.728Z,10.20
2018-12-01T23:00:35.632Z,10.20
2018-12-01T23:03:04.551Z,10.20
2018-12-01T23:05:33.053Z,10.20
2018-12-01T23:08:01.407Z,10.30
2018-12-01T23:11:54.402Z,10.30
2018-12-01T23:14:22.826Z,10.20
2018-12-01T23:16:51.671Z,10.30
2018-12-01T23:19:20.053Z,10.20
2018-12-01T23:21:48.280Z,10.30
2018-12-01T23:24:16.521Z,10.30
2018-12-01T23:26:44.989Z,10.20
2018-12-01T23:29:13.778Z,10.20
2018-12-01T23:31:42.234Z,10.20
2018-12-01T23:34:10.739Z,10.20
2018-12-01T23:36:39.159Z,10.20
2018-12-01T23:39:07.522Z,10.20
2018-12-01T23:41:35.888Z,10.20
2018-12-01T23:44:04.394Z,10.20
2018-12-01T23:46:32.755Z,10.20
2018-12-01T23:49:01.390Z,10.20
2018-12-01T23:51:29.940Z,10.20
2018-12-01T23:53:58.407Z,10.20
2018-12-01T23:56:26.768Z,10.20
2018-12-01T23:58:55.153Z,10.20
